sensor_id;sensor_type;location;lat;lon;timestamp;pressure;altitude;pressure_sealevel;temperature;humidity
46366;BME280;72328;49.570;8.722;2024-01-30T00:01:45;101066.09;;;7.12;50.45
46366;BME280;72328;49.570;8.722;2024-01-30T00:05:46;101065.38;;;7.09;50.06
46366;BME280;72328;49.570;8.722;2024-01-30T00:09:47;101067.13;;;7.07;50.37
46366;BME280;72328;49.570;8.722;2024-01-30T00:13:48;101057.94;;;7.01;50.32
46366;BME280;72328;49.570;8.722;2024-01-30T00:17:49;101064.69;;;7.04;50.49
46366;BME280;72328;49.570;8.722;2024-01-30T00:21:52;101073.19;;;7.04;50.32
46366;BME280;72328;49.570;8.722;2024-01-30T00:25:53;101061.38;;;7.00;50.12
46366;BME280;72328;49.570;8.722;2024-01-30T00:29:54;101070.81;;;6.98;50.18
46366;BME280;72328;49.570;8.722;2024-01-30T00:33:54;101068.38;;;6.95;50.39
46366;BME280;72328;49.570;8.722;2024-01-30T00:37:55;101065.00;;;6.93;50.33
46366;BME280;72328;49.570;8.722;2024-01-30T00:41:55;101071.94;;;6.90;50.53
46366;BME280;72328;49.570;8.722;2024-01-30T00:45:56;101059.34;;;6.84;50.17
46366;BME280;72328;49.570;8.722;2024-01-30T00:50:01;101063.59;;;6.83;50.29
46366;BME280;72328;49.570;8.722;2024-01-30T00:54:02;101072.09;;;6.85;50.36
46366;BME280;72328;49.570;8.722;2024-01-30T00:58:03;101072.97;;;6.84;50.27
46366;BME280;72328;49.570;8.722;2024-01-30T01:02:04;101072.16;;;6.82;50.29
46366;BME280;72328;49.570;8.722;2024-01-30T01:06:05;101062.03;;;6.79;50.40
46366;BME280;72328;49.570;8.722;2024-01-30T01:10:06;101059.72;;;6.72;50.24
46366;BME280;72328;49.570;8.722;2024-01-30T01:14:07;101057.03;;;6.75;50.24
46366;BME280;72328;49.570;8.722;2024-01-30T01:18:07;101057.13;;;6.73;50.79
46366;BME280;72328;49.570;8.722;2024-01-30T01:22:10;101056.31;;;6.71;50.45
46366;BME280;72328;49.570;8.722;2024-01-30T01:26:10;101052.97;;;6.69;50.39
46366;BME280;72328;49.570;8.722;2024-01-30T01:30:11;101060.66;;;6.69;50.13
46366;BME280;72328;49.570;8.722;2024-01-30T01:34:14;101053.91;;;6.67;50.63
46366;BME280;72328;49.570;8.722;2024-01-30T01:38:15;101062.47;;;6.66;50.66
46366;BME280;72328;49.570;8.722;2024-01-30T01:42:16;101054.88;;;6.63;50.30
46366;BME280;72328;49.570;8.722;2024-01-30T01:46:17;101054.09;;;6.61;50.35
46366;BME280;72328;49.570;8.722;2024-01-30T01:50:18;101052.41;;;6.60;50.25
46366;BME280;72328;49.570;8.722;2024-01-30T01:54:20;101043.16;;;6.56;50.50
46366;BME280;72328;49.570;8.722;2024-01-30T01:58:21;101038.84;;;6.56;50.58
46366;BME280;72328;49.570;8.722;2024-01-30T02:02:23;101043.97;;;6.56;50.54
46366;BME280;72328;49.570;8.722;2024-01-30T02:06:26;101038.91;;;6.55;50.60
46366;BME280;72328;49.570;8.722;2024-01-30T02:10:27;101044.91;;;6.54;50.63
46366;BME280;72328;49.570;8.722;2024-01-30T02:14:28;101048.34;;;6.53;50.46
46366;BME280;72328;49.570;8.722;2024-01-30T02:18:29;101050.91;;;6.53;50.50
46366;BME280;72328;49.570;8.722;2024-01-30T02:22:30;101047.59;;;6.49;50.45
46366;BME280;72328;49.570;8.722;2024-01-30T02:26:31;101044.34;;;6.44;50.71
46366;BME280;72328;49.570;8.722;2024-01-30T02:30:31;101046.00;;;6.45;50.72
46366;BME280;72328;49.570;8.722;2024-01-30T02:34:32;101057.97;;;6.45;50.88
46366;BME280;72328;49.570;8.722;2024-01-30T02:38:33;101044.53;;;6.38;50.57
46366;BME280;72328;49.570;8.722;2024-01-30T02:42:34;101044.47;;;6.40;50.59
46366;BME280;72328;49.570;8.722;2024-01-30T02:46:34;101053.03;;;6.39;50.63
46366;BME280;72328;49.570;8.722;2024-01-30T02:50:35;101057.31;;;6.38;50.73
46366;BME280;72328;49.570;8.722;2024-01-30T02:54:36;101054.00;;;6.35;50.62
46366;BME280;72328;49.570;8.722;2024-01-30T02:58:36;101062.56;;;6.34;50.71
46366;BME280;72328;49.570;8.722;2024-01-30T03:02:40;101051.56;;;6.30;50.75
46366;BME280;72328;49.570;8.722;2024-01-30T03:06:45;101055.00;;;6.29;50.63
46366;BME280;72328;49.570;8.722;2024-01-30T03:10:47;101052.50;;;6.28;50.85
46366;BME280;72328;49.570;8.722;2024-01-30T03:14:48;101047.50;;;6.23;50.96
46366;BME280;72328;49.570;8.722;2024-01-30T03:18:49;101050.19;;;6.20;50.64
46366;BME280;72328;49.570;8.722;2024-01-30T03:22:50;101056.97;;;6.21;50.70
46366;BME280;72328;49.570;8.722;2024-01-30T03:26:51;101048.47;;;6.19;50.70
46366;BME280;72328;49.570;8.722;2024-01-30T03:30:51;101051.03;;;6.19;50.56
46366;BME280;72328;49.570;8.722;2024-01-30T03:34:52;101055.38;;;6.17;50.93
46366;BME280;72328;49.570;8.722;2024-01-30T03:38:53;101053.69;;;6.16;50.71
46366;BME280;72328;49.570;8.722;2024-01-30T03:42:53;101047.75;;;6.14;50.92
46366;BME280;72328;49.570;8.722;2024-01-30T03:46:54;101057.25;;;6.11;50.82
46366;BME280;72328;49.570;8.722;2024-01-30T03:50:55;101061.56;;;6.09;50.84
46366;BME280;72328;49.570;8.722;2024-01-30T03:54:55;101046.47;;;6.00;51.06
46366;BME280;72328;49.570;8.722;2024-01-30T03:58:56;101056.63;;;6.03;50.95
46366;BME280;72328;49.570;8.722;2024-01-30T04:03:00;101055.88;;;5.99;50.95
46366;BME280;72328;49.570;8.722;2024-01-30T04:07:01;101048.31;;;5.95;51.15
46366;BME280;72328;49.570;8.722;2024-01-30T04:11:05;101051.69;;;5.97;51.00
46366;BME280;72328;49.570;8.722;2024-01-30T04:15:06;101058.47;;;5.98;50.58
46366;BME280;72328;49.570;8.722;2024-01-30T04:19:06;101059.41;;;5.95;50.80
46366;BME280;72328;49.570;8.722;2024-01-30T04:23:07;101056.88;;;5.94;50.76
46366;BME280;72328;49.570;8.722;2024-01-30T04:27:08;101058.66;;;5.92;50.13
46366;BME280;72328;49.570;8.722;2024-01-30T04:31:09;101065.50;;;5.90;50.83
46366;BME280;72328;49.570;8.722;2024-01-30T04:35:10;101067.28;;;5.88;50.92
46366;BME280;72328;49.570;8.722;2024-01-30T04:39:10;101058.81;;;5.86;50.60
46366;BME280;72328;49.570;8.722;2024-01-30T04:43:11;101049.50;;;5.83;50.78
46366;BME280;72328;49.570;8.722;2024-01-30T04:47:12;101054.56;;;5.85;50.64
46366;BME280;72328;49.570;8.722;2024-01-30T04:51:12;101057.19;;;5.83;50.65
46366;BME280;72328;49.570;8.722;2024-01-30T04:55:13;101052.13;;;5.79;50.92
46366;BME280;72328;49.570;8.722;2024-01-30T04:59:14;101060.66;;;5.81;50.65
46366;BME280;72328;49.570;8.722;2024-01-30T05:03:14;101059.00;;;5.78;50.75
46366;BME280;72328;49.570;8.722;2024-01-30T05:07:15;101053.94;;;5.75;50.77
46366;BME280;72328;49.570;8.722;2024-01-30T05:11:16;101067.59;;;5.74;51.18
46366;BME280;72328;49.570;8.722;2024-01-30T05:15:16;101061.69;;;5.72;50.85
46366;BME280;72328;49.570;8.722;2024-01-30T05:19:20;101062.59;;;5.70;50.87
46366;BME280;72328;49.570;8.722;2024-01-30T05:23:23;101071.09;;;5.70;50.72
46366;BME280;72328;49.570;8.722;2024-01-30T05:27:24;101067.75;;;5.68;50.82
46366;BME280;72328;49.570;8.722;2024-01-30T05:31:25;101072.00;;;5.69;51.22
46366;BME280;72328;49.570;8.722;2024-01-30T05:35:30;101080.53;;;5.68;51.05
46366;BME280;72328;49.570;8.722;2024-01-30T05:39:31;101075.50;;;5.65;50.94
46366;BME280;72328;49.570;8.722;2024-01-30T05:43:33;101075.50;;;5.65;51.06
46366;BME280;72328;49.570;8.722;2024-01-30T05:47:37;101082.28;;;5.66;51.17
46366;BME280;72328;49.570;8.722;2024-01-30T05:51:38;101072.19;;;5.62;50.80
46366;BME280;72328;49.570;8.722;2024-01-30T05:55:39;101078.94;;;5.64;51.34
46366;BME280;72328;49.570;8.722;2024-01-30T05:59:39;101083.25;;;5.62;50.95
46366;BME280;72328;49.570;8.722;2024-01-30T06:03:40;101070.59;;;5.58;50.86
46366;BME280;72328;49.570;8.722;2024-01-30T06:07:41;101079.09;;;5.58;51.27
46366;BME280;72328;49.570;8.722;2024-01-30T06:11:41;101073.13;;;5.58;51.19
46366;BME280;72328;49.570;8.722;2024-01-30T06:15:42;101079.88;;;5.60;51.27
46366;BME280;72328;49.570;8.722;2024-01-30T06:19:42;101085.88;;;5.59;51.17
46366;BME280;72328;49.570;8.722;2024-01-30T06:23:43;101070.72;;;5.53;51.31
46366;BME280;72328;49.570;8.722;2024-01-30T06:27:46;101080.09;;;5.51;51.10
46366;BME280;72328;49.570;8.722;2024-01-30T06:31:46;101084.25;;;5.55;51.00
46366;BME280;72328;49.570;8.722;2024-01-30T06:35:47;101075.81;;;5.53;50.89
46366;BME280;72328;49.570;8.722;2024-01-30T06:39:48;101081.81;;;5.52;51.15
46366;BME280;72328;49.570;8.722;2024-01-30T06:43:49;101081.75;;;5.54;51.16
46366;BME280;72328;49.570;8.722;2024-01-30T06:47:50;101080.97;;;5.52;51.30
46366;BME280;72328;49.570;8.722;2024-01-30T06:51:51;101081.00;;;5.50;51.66
46366;BME280;72328;49.570;8.722;2024-01-30T06:55:51;101081.84;;;5.51;51.45
46366;BME280;72328;49.570;8.722;2024-01-30T06:59:52;101086.09;;;5.50;51.42
46366;BME280;72328;49.570;8.722;2024-01-30T07:03:53;101081.97;;;5.46;51.11
46366;BME280;72328;49.570;8.722;2024-01-30T07:07:53;101077.72;;;5.45;51.01
46366;BME280;72328;49.570;8.722;2024-01-30T07:11:54;101080.16;;;5.50;51.12
46366;BME280;72328;49.570;8.722;2024-01-30T07:15:55;101079.31;;;5.49;51.20
46366;BME280;72328;49.570;8.722;2024-01-30T07:19:56;101079.31;;;5.49;51.33
46366;BME280;72328;49.570;8.722;2024-01-30T07:23:57;101082.66;;;5.51;51.56
46366;BME280;72328;49.570;8.722;2024-01-30T07:27:58;101080.06;;;5.53;51.80
46366;BME280;72328;49.570;8.722;2024-01-30T07:31:59;101077.50;;;5.54;51.78
46366;BME280;72328;49.570;8.722;2024-01-30T07:36:00;101069.81;;;5.54;51.69
46366;BME280;72328;49.570;8.722;2024-01-30T07:40:01;101082.41;;;5.62;51.94
46366;BME280;72328;49.570;8.722;2024-01-30T07:44:02;101089.91;;;5.68;52.18
46366;BME280;72328;49.570;8.722;2024-01-30T07:48:04;101085.56;;;5.71;52.07
46366;BME280;72328;49.570;8.722;2024-01-30T07:52:05;101081.25;;;5.73;52.51
46366;BME280;72328;49.570;8.722;2024-01-30T07:56:07;101085.31;;;5.82;52.12
46366;BME280;72328;49.570;8.722;2024-01-30T08:00:13;101085.88;;;5.93;52.66
46366;BME280;72328;49.570;8.722;2024-01-30T08:04:15;101097.59;;;6.00;52.36
46366;BME280;72328;49.570;8.722;2024-01-30T08:08:15;101093.97;;;6.08;52.59
46366;BME280;72328;49.570;8.722;2024-01-30T08:12:16;101098.66;;;6.23;52.80
46366;BME280;72328;49.570;8.722;2024-01-30T08:16:17;101117.03;;;6.37;53.15
46366;BME280;72328;49.570;8.722;2024-01-30T08:20:18;101103.16;;;6.44;53.39
46366;BME280;72328;49.570;8.722;2024-01-30T08:24:19;101103.63;;;6.58;53.52
46366;BME280;72328;49.570;8.722;2024-01-30T08:28:20;101119.28;;;6.77;53.58
46366;BME280;72328;49.570;8.722;2024-01-30T08:32:20;101121.31;;;6.93;53.67
46366;BME280;72328;49.570;8.722;2024-01-30T08:36:21;101119.19;;;7.07;53.69
46366;BME280;72328;49.570;8.722;2024-01-30T08:40:22;101117.94;;;7.20;53.93
46366;BME280;72328;49.570;8.722;2024-01-30T08:44:22;101113.09;;;7.37;54.07
46366;BME280;72328;49.570;8.722;2024-01-30T08:48:23;101107.50;;;7.52;54.34
46366;BME280;72328;49.570;8.722;2024-01-30T08:52:24;101103.06;;;7.57;54.29
46366;BME280;72328;49.570;8.722;2024-01-30T08:56:24;101111.56;;;7.82;54.35
46366;BME280;72328;49.570;8.722;2024-01-30T09:00:25;101104.25;;;7.96;54.42
46366;BME280;72328;49.570;8.722;2024-01-30T09:04:26;101108.13;;;8.08;54.66
46366;BME280;72328;49.570;8.722;2024-01-30T09:08:26;101095.91;;;8.14;54.37
46366;BME280;72328;49.570;8.722;2024-01-30T09:12:27;101094.50;;;8.30;54.40
46366;BME280;72328;49.570;8.722;2024-01-30T09:16:28;101099.22;;;8.42;54.56
46366;BME280;72328;49.570;8.722;2024-01-30T09:20:29;101092.28;;;8.44;54.60
46366;BME280;72328;49.570;8.722;2024-01-30T09:24:29;101109.25;;;8.48;54.18
46366;BME280;72328;49.570;8.722;2024-01-30T09:28:30;101103.31;;;8.46;54.43
46366;BME280;72328;49.570;8.722;2024-01-30T09:32:31;101104.13;;;8.48;54.00
46366;BME280;72328;49.570;8.722;2024-01-30T09:36:37;101112.34;;;8.56;54.06
46366;BME280;72328;49.570;8.722;2024-01-30T09:40:41;101109.03;;;8.54;53.92
46366;BME280;72328;49.570;8.722;2024-01-30T09:44:47;101105.84;;;8.48;53.63
46366;BME280;72328;49.570;8.722;2024-01-30T09:49:03;101114.16;;;8.54;53.78
46366;BME280;72328;49.570;8.722;2024-01-30T09:53:06;101121.63;;;8.60;54.12
46366;BME280;72328;49.570;8.722;2024-01-30T09:57:07;101109.63;;;8.61;54.23
46366;BME280;72328;49.570;8.722;2024-01-30T10:01:09;101126.28;;;8.72;54.45
46366;BME280;72328;49.570;8.722;2024-01-30T10:05:15;101106.41;;;8.77;54.92
46366;BME280;72328;49.570;8.722;2024-01-30T10:09:36;101105.84;;;8.92;54.89
46366;BME280;72328;49.570;8.722;2024-01-30T10:13:44;101108.97;;;9.00;55.09
46366;BME280;72328;49.570;8.722;2024-01-30T10:17:46;101107.88;;;9.06;55.22
46366;BME280;72328;49.570;8.722;2024-01-30T10:22:17;101108.28;;;9.17;55.27
46366;BME280;72328;49.570;8.722;2024-01-30T10:26:28;101105.47;;;9.23;55.25
46366;BME280;72328;49.570;8.722;2024-01-30T10:30:38;101110.56;;;9.24;55.59
46366;BME280;72328;49.570;8.722;2024-01-30T10:34:39;101105.06;;;9.33;55.67
46366;BME280;72328;49.570;8.722;2024-01-30T10:38:40;101102.25;;;9.39;55.38
46366;BME280;72328;49.570;8.722;2024-01-30T10:42:43;101094.72;;;9.55;55.67
46366;BME280;72328;49.570;8.722;2024-01-30T10:46:45;101090.44;;;9.75;56.18
46366;BME280;72328;49.570;8.722;2024-01-30T10:50:50;101091.91;;;10.01;56.51
46366;BME280;72328;49.570;8.722;2024-01-30T10:54:54;101087.66;;;10.20;56.25
46366;BME280;72328;49.570;8.722;2024-01-30T10:58:54;101082.94;;;10.48;56.51
46366;BME280;72328;49.570;8.722;2024-01-30T11:03:01;101088.72;;;10.71;56.77
46366;BME280;72328;49.570;8.722;2024-01-30T11:07:18;101090.94;;;10.97;56.93
46366;BME280;72328;49.570;8.722;2024-01-30T11:11:21;101095.69;;;11.23;56.69
46366;BME280;72328;49.570;8.722;2024-01-30T11:15:21;101088.56;;;11.45;56.87
46366;BME280;72328;49.570;8.722;2024-01-30T11:19:25;101084.94;;;11.83;56.62
46366;BME280;72328;49.570;8.722;2024-01-30T11:23:26;101085.22;;;12.11;56.82
46366;BME280;72328;49.570;8.722;2024-01-30T11:27:30;101084.59;;;12.39;56.83
46366;BME280;72328;49.570;8.722;2024-01-30T11:31:32;101080.13;;;12.58;56.79
46366;BME280;72328;49.570;8.722;2024-01-30T11:35:34;101093.53;;;12.80;56.59
46366;BME280;72328;49.570;8.722;2024-01-30T11:39:35;101082.13;;;12.99;56.59
46366;BME280;72328;49.570;8.722;2024-01-30T11:43:36;101081.00;;;13.19;56.13
46366;BME280;72328;49.570;8.722;2024-01-30T11:47:39;101078.31;;;13.36;55.90
46366;BME280;72328;49.570;8.722;2024-01-30T11:51:40;101075.69;;;13.51;55.99
46366;BME280;72328;49.570;8.722;2024-01-30T11:55:41;101072.78;;;13.71;56.18
46366;BME280;72328;49.570;8.722;2024-01-30T11:59:41;101065.94;;;13.84;55.89
46366;BME280;72328;49.570;8.722;2024-01-30T12:03:42;101066.88;;;13.97;56.16
46366;BME280;72328;49.570;8.722;2024-01-30T12:07:46;101033.78;;;14.02;55.79
46366;BME280;72328;49.570;8.722;2024-01-30T12:11:48;101034.91;;;14.12;56.11
46366;BME280;72328;49.570;8.722;2024-01-30T12:15:51;101028.06;;;14.25;55.61
46366;BME280;72328;49.570;8.722;2024-01-30T12:24:07;101014.16;;;14.40;55.61
46366;BME280;72328;49.570;8.722;2024-01-30T12:28:08;101007.09;;;14.42;55.39
46366;BME280;72328;49.570;8.722;2024-01-30T12:32:15;101014.13;;;14.54;55.41
46366;BME280;72328;49.570;8.722;2024-01-30T12:36:16;101027.44;;;14.62;55.43
46366;BME280;72328;49.570;8.722;2024-01-30T12:40:17;101030.16;;;14.73;55.21
46366;BME280;72328;49.570;8.722;2024-01-30T12:44:19;101028.84;;;14.80;55.09
46366;BME280;72328;49.570;8.722;2024-01-30T12:48:19;101034.56;;;14.85;54.96
46366;BME280;72328;49.570;8.722;2024-01-30T12:52:21;101028.47;;;14.86;54.91
46366;BME280;72328;49.570;8.722;2024-01-30T12:56:22;101031.31;;;14.96;55.10
46366;BME280;72328;49.570;8.722;2024-01-30T13:00:22;101042.22;;;15.01;55.13
46366;BME280;72328;49.570;8.722;2024-01-30T13:04:23;101035.16;;;15.03;54.90
46366;BME280;72328;49.570;8.722;2024-01-30T13:08:24;101035.41;;;15.12;55.10
46366;BME280;72328;49.570;8.722;2024-01-30T13:12:24;101035.19;;;15.15;54.78
46366;BME280;72328;49.570;8.722;2024-01-30T13:16:25;101032.50;;;15.17;54.94
46366;BME280;72328;49.570;8.722;2024-01-30T13:20:26;101038.13;;;15.23;54.92
46366;BME280;72328;49.570;8.722;2024-01-30T13:24:30;101036.97;;;15.27;55.16
46366;BME280;72328;49.570;8.722;2024-01-30T13:28:31;101033.81;;;15.36;55.06
46366;BME280;72328;49.570;8.722;2024-01-30T13:32:31;101028.03;;;15.45;55.11
46366;BME280;72328;49.570;8.722;2024-01-30T13:36:32;101022.31;;;15.53;54.96
46366;BME280;72328;49.570;8.722;2024-01-30T13:40:33;101027.28;;;15.56;54.58
46366;BME280;72328;49.570;8.722;2024-01-30T13:44:35;101019.13;;;15.49;54.25
46366;BME280;72328;49.570;8.722;2024-01-30T13:48:36;101010.66;;;15.46;54.24
46366;BME280;72328;49.570;8.722;2024-01-30T13:52:36;101014.53;;;15.53;54.36
46366;BME280;72328;49.570;8.722;2024-01-30T13:56:37;101027.09;;;15.59;54.34
46366;BME280;72328;49.570;8.722;2024-01-30T14:00:41;101014.31;;;15.56;54.04
46366;BME280;72328;49.570;8.722;2024-01-30T14:04:42;101030.22;;;15.64;53.88
46366;BME280;72328;49.570;8.722;2024-01-30T14:08:44;101022.53;;;15.62;54.12
46366;BME280;72328;49.570;8.722;2024-01-30T14:12:44;101001.66;;;15.51;54.04
46366;BME280;72328;49.570;8.722;2024-01-30T14:26:19;101003.91;;;15.43;53.64
46366;BME280;72328;49.570;8.722;2024-01-30T14:35:09;101001.63;;;15.39;53.61
46366;BME280;72328;49.570;8.722;2024-01-30T14:44:04;101006.13;;;15.37;53.46
46366;BME280;72328;49.570;8.722;2024-01-30T14:48:22;101014.16;;;15.32;53.58
46366;BME280;72328;49.570;8.722;2024-01-30T14:52:55;101010.94;;;15.29;53.36
46366;BME280;72328;49.570;8.722;2024-01-30T14:57:11;101018.97;;;15.38;53.27
46366;BME280;72328;49.570;8.722;2024-01-30T15:11:20;101024.75;;;15.29;52.96
46366;BME280;72328;49.570;8.722;2024-01-30T15:20:25;101036.56;;;15.21;53.06
46366;BME280;72328;49.570;8.722;2024-01-30T15:25:06;101034.16;;;15.18;52.75
46366;BME280;72328;49.570;8.722;2024-01-30T15:29:58;101040.38;;;15.15;52.84
46366;BME280;72328;49.570;8.722;2024-01-30T15:39:06;101056.34;;;15.09;52.65
46366;BME280;72328;49.570;8.722;2024-01-30T15:52:58;101046.22;;;14.92;52.70
46366;BME280;72328;49.570;8.722;2024-01-30T16:02:09;101068.72;;;14.92;52.53
46366;BME280;72328;49.570;8.722;2024-01-30T16:06:13;101064.66;;;14.88;52.29
46366;BME280;72328;49.570;8.722;2024-01-30T16:10:20;101076.06;;;14.85;52.45
46366;BME280;72328;49.570;8.722;2024-01-30T16:14:21;101082.28;;;14.83;52.52
46366;BME280;72328;49.570;8.722;2024-01-30T16:18:22;101063.78;;;14.75;52.42
46366;BME280;72328;49.570;8.722;2024-01-30T16:22:22;101074.34;;;14.72;52.58
46366;BME280;72328;49.570;8.722;2024-01-30T16:26:23;101080.38;;;14.72;52.68
46366;BME280;72328;49.570;8.722;2024-01-30T16:30:25;101074.34;;;14.72;52.48
46366;BME280;72328;49.570;8.722;2024-01-30T16:34:25;101083.91;;;14.71;52.71
46366;BME280;72328;49.570;8.722;2024-01-30T16:38:26;101089.16;;;14.70;52.58
46366;BME280;72328;49.570;8.722;2024-01-30T16:42:27;101085.09;;;14.66;52.63
46366;BME280;72328;49.570;8.722;2024-01-30T16:46:28;101110.09;;;14.67;52.40
46366;BME280;72328;49.570;8.722;2024-01-30T16:50:31;101099.06;;;14.63;52.54
46366;BME280;72328;49.570;8.722;2024-01-30T16:54:32;101098.25;;;14.63;52.69
46366;BME280;72328;49.570;8.722;2024-01-30T16:58:33;101107.16;;;14.59;52.52
46366;BME280;72328;49.570;8.722;2024-01-30T17:02:33;101110.59;;;14.59;52.87
46366;BME280;72328;49.570;8.722;2024-01-30T17:06:34;101108.91;;;14.58;52.93
46366;BME280;72328;49.570;8.722;2024-01-30T17:10:35;101114.84;;;14.60;52.75
46366;BME280;72328;49.570;8.722;2024-01-30T17:14:35;101120.03;;;14.60;52.86
46366;BME280;72328;49.570;8.722;2024-01-30T17:18:39;101136.31;;;14.62;52.86
46366;BME280;72328;49.570;8.722;2024-01-30T17:22:40;101127.59;;;14.63;52.94
46366;BME280;72328;49.570;8.722;2024-01-30T17:26:41;101131.13;;;14.62;52.95
46366;BME280;72328;49.570;8.722;2024-01-30T17:30:44;101135.28;;;14.65;52.88
46366;BME280;72328;49.570;8.722;2024-01-30T17:34:44;101145.56;;;14.66;53.12
46366;BME280;72328;49.570;8.722;2024-01-30T17:38:45;101144.94;;;14.63;53.01
46366;BME280;72328;49.570;8.722;2024-01-30T17:42:47;101157.78;;;14.64;52.66
46366;BME280;72328;49.570;8.722;2024-01-30T17:46:51;101163.06;;;14.63;52.79
46366;BME280;72328;49.570;8.722;2024-01-30T17:50:52;101161.38;;;14.62;53.06
46366;BME280;72328;49.570;8.722;2024-01-30T17:54:53;101162.31;;;14.61;53.05
46366;BME280;72328;49.570;8.722;2024-01-30T17:58:53;101184.06;;;14.58;53.10
46366;BME280;72328;49.570;8.722;2024-01-30T18:02:54;101175.56;;;14.56;52.95
46366;BME280;72328;49.570;8.722;2024-01-30T18:06:56;101172.97;;;14.56;52.97
46366;BME280;72328;49.570;8.722;2024-01-30T18:10:57;101184.72;;;14.62;53.15
46366;BME280;72328;49.570;8.722;2024-01-30T18:14:58;101193.34;;;14.62;52.99
46366;BME280;72328;49.570;8.722;2024-01-30T18:18:59;101204.56;;;14.63;52.93
46366;BME280;72328;49.570;8.722;2024-01-30T18:22:59;101210.75;;;14.60;53.06
46366;BME280;72328;49.570;8.722;2024-01-30T18:27:00;101219.47;;;14.59;53.03
46366;BME280;72328;49.570;8.722;2024-01-30T18:31:01;101221.94;;;14.61;53.20
46366;BME280;72328;49.570;8.722;2024-01-30T18:35:02;101228.78;;;14.62;53.00
46366;BME280;72328;49.570;8.722;2024-01-30T18:39:02;101219.34;;;14.61;53.26
46366;BME280;72328;49.570;8.722;2024-01-30T18:43:05;101225.38;;;14.61;53.09
46366;BME280;72328;49.570;8.722;2024-01-30T18:47:07;101224.34;;;14.64;53.19
46366;BME280;72328;49.570;8.722;2024-01-30T18:51:14;101221.75;;;14.64;53.14
46366;BME280;72328;49.570;8.722;2024-01-30T18:55:16;101228.53;;;14.66;53.04
46366;BME280;72328;49.570;8.722;2024-01-30T18:59:17;101218.31;;;14.63;53.37
46366;BME280;72328;49.570;8.722;2024-01-30T19:03:19;101231.28;;;14.63;53.20
46366;BME280;72328;49.570;8.722;2024-01-30T19:07:21;101213.34;;;14.60;53.40
46366;BME280;72328;49.570;8.722;2024-01-30T19:11:22;101219.47;;;14.59;53.23
46366;BME280;72328;49.570;8.722;2024-01-30T19:15:23;101235.09;;;14.58;53.38
46366;BME280;72328;49.570;8.722;2024-01-30T19:19:23;101242.97;;;14.56;53.37
46366;BME280;72328;49.570;8.722;2024-01-30T19:23:24;101248.88;;;14.58;53.31
46366;BME280;72328;49.570;8.722;2024-01-30T19:27:25;101247.69;;;14.64;53.29
46366;BME280;72328;49.570;8.722;2024-01-30T19:31:26;101248.72;;;14.61;53.40
46366;BME280;72328;49.570;8.722;2024-01-30T19:35:27;101263.72;;;14.70;53.27
46366;BME280;72328;49.570;8.722;2024-01-30T19:39:27;101270.38;;;14.74;53.37
46366;BME280;72328;49.570;8.722;2024-01-30T19:43:28;101277.25;;;14.75;53.04
46366;BME280;72328;49.570;8.722;2024-01-30T19:47:29;101265.09;;;14.76;53.26
46366;BME280;72328;49.570;8.722;2024-01-30T19:51:30;101282.22;;;14.78;53.22
46366;BME280;72328;49.570;8.722;2024-01-30T19:55:30;101276.50;;;14.73;52.98
46366;BME280;72328;49.570;8.722;2024-01-30T19:59:32;101283.53;;;14.71;53.14
46366;BME280;72328;49.570;8.722;2024-01-30T20:03:34;101290.56;;;14.69;53.14
46366;BME280;72328;49.570;8.722;2024-01-30T20:07:35;101291.56;;;14.67;53.38
46366;BME280;72328;49.570;8.722;2024-01-30T20:11:36;101284.06;;;14.62;53.18
46366;BME280;72328;49.570;8.722;2024-01-30T20:15:37;101282.50;;;14.60;53.20
46366;BME280;72328;49.570;8.722;2024-01-30T20:19:38;101276.66;;;14.56;53.35
46366;BME280;72328;49.570;8.722;2024-01-30T20:23:41;101282.84;;;14.54;53.27
46366;BME280;72328;49.570;8.722;2024-01-30T20:27:42;101283.13;;;14.49;53.56
46366;BME280;72328;49.570;8.722;2024-01-30T20:31:43;101274.34;;;14.52;53.63
46366;BME280;72328;49.570;8.722;2024-01-30T20:35:44;101278.53;;;14.54;53.59
46366;BME280;72328;49.570;8.722;2024-01-30T20:39:46;101281.13;;;14.54;53.51
46366;BME280;72328;49.570;8.722;2024-01-30T20:43:46;101283.41;;;14.59;53.15
46366;BME280;72328;49.570;8.722;2024-01-30T20:47:47;101283.34;;;14.60;53.20
46366;BME280;72328;49.570;8.722;2024-01-30T20:51:48;101289.16;;;14.64;53.30
46366;BME280;72328;49.570;8.722;2024-01-30T20:55:49;101286.50;;;14.65;53.17
46366;BME280;72328;49.570;8.722;2024-01-30T20:59:49;101277.78;;;14.66;53.25
46366;BME280;72328;49.570;8.722;2024-01-30T21:03:50;101272.53;;;14.68;53.18
46366;BME280;72328;49.570;8.722;2024-01-30T21:07:52;101264.81;;;14.66;53.08
46366;BME280;72328;49.570;8.722;2024-01-30T21:11:53;101271.66;;;14.67;52.79
46366;BME280;72328;49.570;8.722;2024-01-30T21:15:54;101259.72;;;14.65;52.90
46366;BME280;72328;49.570;8.722;2024-01-30T21:19:54;101268.34;;;14.65;53.08
46366;BME280;72328;49.570;8.722;2024-01-30T21:23:55;101266.66;;;14.64;53.11
46366;BME280;72328;49.570;8.722;2024-01-30T21:27:56;101265.00;;;14.63;52.98
46366;BME280;72328;49.570;8.722;2024-01-30T21:31:56;101266.78;;;14.63;53.19
46366;BME280;72328;49.570;8.722;2024-01-30T21:36:01;101258.16;;;14.62;53.13
46366;BME280;72328;49.570;8.722;2024-01-30T21:40:02;101254.72;;;14.62;53.20
46366;BME280;72328;49.570;8.722;2024-01-30T21:44:04;101245.19;;;14.62;53.11
46366;BME280;72328;49.570;8.722;2024-01-30T21:48:05;101251.22;;;14.63;53.37
46366;BME280;72328;49.570;8.722;2024-01-30T21:52:06;101255.38;;;14.65;53.30
46366;BME280;72328;49.570;8.722;2024-01-30T21:56:08;101252.78;;;14.65;53.38
46366;BME280;72328;49.570;8.722;2024-01-30T22:00:10;101256.03;;;14.69;53.23
46366;BME280;72328;49.570;8.722;2024-01-30T22:04:11;101261.13;;;14.70;53.40
46366;BME280;72328;49.570;8.722;2024-01-30T22:08:11;101250.75;;;14.70;53.33
46366;BME280;72328;49.570;8.722;2024-01-30T22:12:12;101258.72;;;14.67;53.52